Las Vegas Municipal Airport
KLVS : now visible

Airfield :











YOU CAN JOIN US ON...

 
LOGIN :

Register | Disclaimer

   EN    FR    IT 

 









Legend :    VFR   Marginal VFR   IFR   Intensive IFR   Very Intensive IFR
Visi :
Ceiling :
>= 8 km
>= 3000ft
5 to 8 km
1000 to 3000 ft
1500m to 5 km
500 to 1000 ft
800 to 1500m
200 to 500 ft
< 800m
< 200 ft
Symbols :   Thunderstorms  Fog  Heavy snow  Heavy precipitations  Wind > 20 kt






- Airport Elevation : 6877 ft


KLVS - Las Vegas Municipal

CURRENT METAR :
  • 081953Z AUTO 33012G18KT 10SM FEW110 29/03 A3028 RMK AO2 LTG DSNT NE SLP121 T02940028 $

EXPIRED METARs :
  • 081853Z AUTO VRB03KT 10SM CLR 30/02 A3028 RMK AO2 LTG DSNT NW SLP126 T03000017
  • 081753Z AUTO VRB03KT 10SM CLR 28/02 A3030 RMK AO2 SLP133 T02830017 10294 20139 58003
  • 081653Z AUTO 10008KT 060V130 10SM CLR 28/04 A3032 RMK AO2 SLP138 T02780039

TAF KLVS
Valid from the 08 at 18:00 until the 09 at 18:00 UTC


081736Z 0818/0918 20006KT P6SM SCT110
FM082000 22011G19KT P6SM VCSH SCT120
FM090000 26012KT P6SM VCTS BKN120CB
FM090300 VRB06KT P6SM BKN110
FM091700 21010KT P6SM SCT120
KZAB FIR / North America



MET'MAP, your aeronautical weather chart ! - Copyright ORBIFLY December 2007 - Disclaimer

ORBIFLY MET'MAP TEAM :

Programming & Development : Alexandra Zaïnal
Concept & original design : Baudouin d'Aumeries
Assistance for programming : Marc-Olivier Méhu
Technical & hardware support : Manuel Goepfert

Contact : metmap@orbifly.com




SOURCES & CREDITS :

   NOAA       Earth
Advisory